Time;durP1;ratioP1;P1;durP2;ratioP2;P2;SDS_P1;SDS_P2;PMS_P1;PMS_P2;Temp;Humidity;BMP_temperature;BMP_pressure;BME280_temperature;BME280_humidity;BME280_pressure;Samples;Min_cycle;Max_cycle;Signal;HPM_P1;HPM_P2
2022/08/20 00:01:41;;;;;;;3.05;2.37;;;;;;;19.79;75.62;100170.16;1803608;79;21027;-64
2022/08/20 00:04:13;;;;;;;3.83;2.70;;;;;;;19.79;75.74;100174.33;1793496;79;21073;-66
2022/08/20 00:06:45;;;;;;;3.72;2.80;;;;;;;19.73;75.86;100180.39;1780361;79;21055;-65
2022/08/20 00:09:15;;;;;;;4.72;2.55;;;;;;;19.68;76.16;100181.73;1791843;79;21046;-65
2022/08/20 00:11:44;;;;;;;4.90;2.65;;;;;;;19.66;76.29;100178.93;1778918;79;21011;-65
2022/08/20 00:14:13;;;;;;;3.40;2.45;;;;;;;19.66;76.37;100181.16;1806151;79;21065;-64
2022/08/20 00:16:45;;;;;;;4.25;2.42;;;;;;;19.67;76.47;100182.00;1786916;79;21042;-64
2022/08/20 00:19:16;;;;;;;5.62;2.50;;;;;;;19.67;76.54;100182.84;1799117;79;21022;-65
2022/08/20 00:21:46;;;;;;;3.87;2.70;;;;;;;19.64;76.64;100184.75;1816075;79;21062;-65
2022/08/20 00:24:18;;;;;;;3.80;2.45;;;;;;;19.60;76.83;100180.82;1804141;79;21011;-64
2022/08/20 00:26:47;;;;;;;3.45;2.33;;;;;;;19.60;76.94;100180.82;1787193;79;21066;-66
2022/08/20 00:29:19;;;;;;;4.30;2.40;;;;;;;19.63;76.87;100178.91;1795192;79;20967;-65
2022/08/20 00:31:49;;;;;;;3.25;2.60;;;;;;;19.66;76.83;100183.94;1788868;79;21038;-64
2022/08/20 00:34:19;;;;;;;4.78;2.37;;;;;;;19.64;76.86;100180.58;1798942;79;21170;-65
2022/08/20 00:36:48;;;;;;;3.58;2.35;;;;;;;19.63;76.83;100192.25;1814574;79;21054;-65
2022/08/20 00:39:18;;;;;;;3.50;2.70;;;;;;;19.64;76.83;100188.92;1796094;79;21045;-64
2022/08/20 00:41:50;;;;;;;2.77;2.25;;;;;;;19.66;76.85;100192.28;1796270;79;21473;-65
2022/08/20 00:44:21;;;;;;;4.08;2.27;;;;;;;19.61;76.96;100195.84;1780516;79;21061;-64
2022/08/20 00:46:51;;;;;;;3.67;2.45;;;;;;;19.54;77.19;100195.22;1798390;79;21054;-65
2022/08/20 00:49:27;;;;;;;2.95;2.62;;;;;;;19.48;77.48;100194.81;1797692;79;21113;-65
2022/08/20 00:52:11;;;;;;;3.12;2.50;;;;;;;19.42;77.79;100199.18;1811444;79;21016;-65
2022/08/20 00:54:44;;;;;;;4.28;2.52;;;;;;;19.40;77.95;100201.38;1796473;79;21023;-64
2022/08/20 00:57:33;;;;;;;3.55;2.75;;;;;;;19.42;78.07;100204.19;1794841;79;21042;-66
2022/08/20 01:00:10;;;;;;;5.53;2.55;;;;;;;19.46;78.04;100208.67;1786217;79;21003;-65
2022/08/20 01:02:41;;;;;;;4.12;2.80;;;;;;;19.49;77.95;100202.59;1804967;79;21077;-64
2022/08/20 01:05:10;;;;;;;4.28;2.85;;;;;;;19.53;77.83;100192.70;1772083;78;21081;-64
2022/08/20 01:07:41;;;;;;;5.72;3.42;;;;;;;19.52;77.68;100199.33;1821070;78;21030;-65
2022/08/20 01:10:18;;;;;;;4.53;2.77;;;;;;;19.45;77.76;100198.66;1814669;78;21002;-65
2022/08/20 01:12:48;;;;;;;5.30;2.80;;;;;;;19.41;77.93;100198.89;1794621;78;21018;-65
2022/08/20 01:15:22;;;;;;;5.20;3.27;;;;;;;19.37;78.14;100189.40;1803281;78;21069;-65
2022/08/20 01:17:57;;;;;;;4.28;2.70;;;;;;;19.32;78.36;100185.47;1813047;78;21030;-64
2022/08/20 01:20:31;;;;;;;4.37;3.15;;;;;;;19.30;78.64;100186.83;1747097;81;21041;-63
2022/08/20 01:23:31;;;;;;;4.33;2.90;;;;;;;19.30;78.71;100189.05;1724111;81;21038;-63
2022/08/20 01:26:09;;;;;;;4.87;2.90;;;;;;;19.30;78.78;100186.83;1773088;80;21086;-64
2022/08/20 01:28:58;;;;;;;3.85;2.47;;;;;;;19.30;78.89;100185.44;1776983;80;21046;-63
2022/08/20 01:31:32;;;;;;;5.37;2.70;;;;;;;19.31;78.93;100181.01;1742489;80;21531;-65
2022/08/20 01:34:03;;;;;;;5.25;2.70;;;;;;;19.29;79.00;100180.43;1764666;80;21014;-64
2022/08/20 01:36:45;;;;;;;3.95;3.00;;;;;;;19.29;79.14;100183.20;1766346;80;21018;-64
2022/08/20 01:39:20;;;;;;;3.45;2.90;;;;;;;19.27;79.21;100182.63;1757539;80;21146;-65
2022/08/20 01:42:13;;;;;;;3.98;2.45;;;;;;;19.23;79.35;100176.47;1777041;80;21445;-65
2022/08/20 01:44:44;;;;;;;4.40;2.85;;;;;;;19.22;79.49;100178.95;1777113;80;21002;-65
2022/08/20 01:47:17;;;;;;;3.72;2.67;;;;;;;19.19;79.64;100173.38;1775997;80;21516;-66
2022/08/20 01:49:51;;;;;;;3.37;2.90;;;;;;;19.18;79.82;100174.47;1780989;80;21007;-65
2022/08/20 01:52:32;;;;;;;7.15;3.00;;;;;;;19.18;79.92;100171.69;1784538;80;21087;-64
2022/08/20 01:55:02;;;;;;;3.42;2.60;;;;;;;19.17;80.06;100166.39;1771581;80;21014;-64
2022/08/20 01:57:33;;;;;;;3.30;2.70;;;;;;;19.14;80.12;100163.59;1783814;80;20986;-65
2022/08/20 02:00:14;;;;;;;5.72;2.67;;;;;;;19.17;80.10;100164.45;1759156;80;21042;-64
2022/08/20 02:02:46;;;;;;;6.58;2.87;;;;;;;19.15;80.10;100168.59;1752096;80;21018;-65
2022/08/20 02:05:16;;;;;;;5.87;2.90;;;;;;;19.11;80.24;100169.66;1756788;81;21027;-65
2022/08/20 02:07:45;;;;;;;4.60;2.87;;;;;;;19.12;80.36;100174.12;1738681;81;21020;-66
2022/08/20 02:10:16;;;;;;;3.50;2.85;;;;;;;19.13;80.33;100172.18;1760596;81;21012;-65
2022/08/20 02:12:46;;;;;;;4.45;2.67;;;;;;;19.11;80.33;100175.22;1720922;81;21071;-65
2022/08/20 02:15:18;;;;;;;3.15;2.58;;;;;;;19.12;80.36;100172.73;1795564;79;21113;-65
2022/08/20 02:17:49;;;;;;;5.33;2.80;;;;;;;19.11;80.43;100175.22;1792062;79;21019;-63
2022/08/20 02:20:22;;;;;;;4.70;3.12;;;;;;;19.09;80.54;100179.35;1805349;79;21055;-64
2022/08/20 02:22:57;;;;;;;5.05;3.12;;;;;;;19.08;80.65;100184.06;1771941;79;21501;-64
2022/08/20 02:25:30;;;;;;;4.87;3.02;;;;;;;19.05;80.75;100179.03;1811966;79;21030;-65
2022/08/20 02:28:04;;;;;;;4.65;2.87;;;;;;;19.06;80.80;100179.87;1796321;79;21591;-64
2022/08/20 02:30:38;;;;;;;4.20;2.70;;;;;;;19.04;80.74;100179.29;1796726;79;21002;-65
2022/08/20 02:33:10;;;;;;;4.85;2.65;;;;;;;19.00;80.89;100177.58;1782634;79;21315;-63
2022/08/20 02:35:41;;;;;;;6.50;3.33;;;;;;;18.99;81.08;100170.34;1813881;79;21055;-65
2022/08/20 02:38:14;;;;;;;4.85;2.95;;;;;;;18.96;81.26;100166.15;1782720;79;21485;-66
2022/08/20 02:40:44;;;;;;;4.35;2.80;;;;;;;18.97;81.45;100171.16;1776267;79;21070;-63
2022/08/20 02:43:16;;;;;;;5.67;3.02;;;;;;;18.99;81.52;100167.02;1808240;79;21457;-65
2022/08/20 02:45:45;;;;;;;6.37;2.95;;;;;;;19.02;81.48;100163.44;1811557;79;21039;-64
2022/08/20 02:48:23;;;;;;;8.23;3.40;;;;;;;19.01;81.50;100172.31;1785760;79;21063;-64
2022/08/20 02:50:55;;;;;;;3.50;2.80;;;;;;;19.05;81.56;100171.25;1801819;79;21512;-64
2022/08/20 02:53:27;;;;;;;4.28;3.20;;;;;;;19.06;81.58;100169.60;1802396;79;20971;-65
2022/08/20 02:55:56;;;;;;;2.98;2.60;;;;;;;19.08;81.66;100176.28;1800410;79;21074;-65
2022/08/20 02:58:25;;;;;;;4.97;2.80;;;;;;;19.10;81.57;100170.77;1797247;79;20987;-64
2022/08/20 03:00:55;;;;;;;3.75;2.58;;;;;;;19.15;81.57;100174.15;1795843;79;21026;-64
2022/08/20 03:03:26;;;;;;;5.25;3.08;;;;;;;19.20;81.48;100174.20;1798851;79;20987;-65
2022/08/20 03:05:57;;;;;;;4.35;2.90;;;;;;;19.23;81.31;100182.02;1769713;79;21068;-64
2022/08/20 03:08:28;;;;;;;5.28;2.90;;;;;;;19.23;81.28;100174.53;1777232;80;21062;-64
2022/08/20 03:10:58;;;;;;;6.62;3.10;;;;;;;19.23;81.19;100171.75;1767694;80;21076;-65
2022/08/20 03:13:28;;;;;;;3.98;2.98;;;;;;;19.23;81.20;100175.91;1765536;80;21045;-66
2022/08/20 03:16:00;;;;;;;4.15;2.83;;;;;;;19.25;81.14;100173.72;1768852;80;21027;-64
2022/08/20 03:18:34;;;;;;;3.55;2.77;;;;;;;19.25;81.01;100187.61;1760804;80;21038;-64
2022/08/20 03:21:05;;;;;;;3.95;3.08;;;;;;;19.23;81.09;100178.69;1774199;79;21043;-65
2022/08/20 03:23:35;;;;;;;5.87;3.10;;;;;;;19.23;81.15;100181.47;1759728;80;21017;-66
2022/08/20 03:26:08;;;;;;;4.67;3.02;;;;;;;19.21;81.24;100176.72;1740355;80;21023;-65
2022/08/20 03:28:38;;;;;;;3.40;2.58;;;;;;;19.21;81.30;100182.83;1761626;80;21455;-63
2022/08/20 03:31:09;;;;;;;3.15;2.50;;;;;;;19.20;81.21;100183.37;1755671;79;21041;-64
2022/08/20 03:33:40;;;;;;;4.47;2.52;;;;;;;19.20;81.19;100180.60;1772012;79;21095;-64
2022/08/20 03:36:12;;;;;;;3.42;2.83;;;;;;;19.19;81.20;100179.47;1754259;80;21092;-64
2022/08/20 03:38:44;;;;;;;4.03;2.70;;;;;;;19.15;81.29;100179.70;1773769;80;21030;-64
2022/08/20 03:41:15;;;;;;;3.72;2.65;;;;;;;19.14;81.34;100181.64;1781808;79;21410;-65
2022/08/20 03:43:45;;;;;;;4.92;2.87;;;;;;;19.16;81.28;100184.16;1773878;79;21437;-65
2022/08/20 03:46:15;;;;;;;3.50;2.80;;;;;;;19.16;81.35;100185.55;1783979;79;21027;-64
2022/08/20 03:48:47;;;;;;;3.60;2.70;;;;;;;19.19;81.27;100178.08;1754058;80;21059;-66
2022/08/20 03:51:18;;;;;;;3.60;2.95;;;;;;;19.18;80.98;100177.24;1717692;82;21019;-64
2022/08/20 03:53:49;;;;;;;4.30;3.15;;;;;;;19.14;81.12;100177.47;1774850;79;21047;-65
2022/08/20 03:56:18;;;;;;;3.47;2.80;;;;;;;19.14;81.12;100179.41;1751766;79;21009;-65
2022/08/20 03:58:47;;;;;;;5.55;3.20;;;;;;;19.16;81.16;100182.22;1759408;80;21462;-65
2022/08/20 04:01:16;;;;;;;3.75;3.10;;;;;;;19.20;81.05;100185.32;1761533;79;21050;-67
2022/08/20 04:03:48;;;;;;;6.00;3.47;;;;;;;19.20;81.01;100185.32;1764879;80;21038;-64
2022/08/20 04:06:19;;;;;;;6.45;3.40;;;;;;;19.20;80.97;100188.94;1781523;79;21046;-65
2022/08/20 04:08:50;;;;;;;3.62;3.30;;;;;;;19.21;80.80;100184.22;1789890;79;21019;-65
2022/08/20 04:11:20;;;;;;;5.22;3.12;;;;;;;19.21;80.78;100180.89;1814259;79;21054;-63
2022/08/20 04:13:50;;;;;;;4.97;3.37;;;;;;;19.18;80.74;100178.64;1798693;79;21097;-66
2022/08/20 04:16:21;;;;;;;4.90;3.10;;;;;;;19.14;80.96;100174.70;1798730;79;21155;-64
2022/08/20 04:18:51;;;;;;;4.28;2.75;;;;;;;19.19;81.00;100177.53;1789081;79;21486;-65
2022/08/20 04:21:23;;;;;;;4.75;3.02;;;;;;;19.24;80.93;100177.59;1786782;78;21105;-62
2022/08/20 04:23:55;;;;;;;4.22;3.42;;;;;;;19.27;80.78;100186.80;1805077;79;21031;-65
2022/08/20 04:26:24;;;;;;;7.45;3.30;;;;;;;19.27;80.62;100186.80;1788586;79;21070;-65
2022/08/20 04:28:54;;;;;;;5.85;3.25;;;;;;;19.28;80.64;100184.31;1795432;79;21026;-65
2022/08/20 04:31:32;;;;;;;6.90;4.20;;;;;;;19.27;80.50;100186.80;1810892;79;21058;-66
2022/08/20 04:33:56;;;;;;;5.62;3.33;;;;;;;19.25;80.72;100179.82;1810178;78;21070;-65
2022/08/20 04:36:27;;;;;;;4.78;3.83;;;;;;;19.26;80.92;100185.12;1799469;79;21042;-65
2022/08/20 04:38:58;;;;;;;4.05;3.20;;;;;;;19.30;80.89;100187.66;1810699;79;21834;-66
2022/08/20 04:41:27;;;;;;;5.78;3.20;;;;;;;19.37;80.69;100188.02;1811847;79;21018;-65
2022/08/20 04:43:57;;;;;;;4.00;2.92;;;;;;;19.36;80.48;100187.17;1802490;79;20979;-64
2022/08/20 04:46:26;;;;;;;4.62;3.20;;;;;;;19.37;80.51;100186.08;1803704;79;21487;-65
2022/08/20 04:48:56;;;;;;;5.95;2.98;;;;;;;19.40;80.59;100185.55;1789868;79;21011;-65
2022/08/20 04:51:26;;;;;;;5.33;3.70;;;;;;;19.44;80.41;100176.14;1805212;79;21093;-64
2022/08/20 04:53:57;;;;;;;3.70;3.10;;;;;;;19.48;80.31;100173.97;1815892;79;21026;-65
2022/08/20 04:56:36;;;;;;;4.08;3.02;;;;;;;19.53;80.07;100169.08;1803912;79;21035;-64
2022/08/20 04:59:03;;;;;;;;;;;;;;;19.55;79.79;100169.10;1769746;79;21477;-65
2022/08/20 05:01:33;;;;;;;5.67;3.35;;;;;;;19.53;79.74;100166.30;1804642;79;20149;-65
2022/08/20 05:04:03;;;;;;;5.80;3.17;;;;;;;19.52;79.94;100168.75;1787343;79;21474;-64
2022/08/20 05:06:34;;;;;;;6.42;3.85;;;;;;;19.54;80.00;100172.98;1767054;79;21083;-64
2022/08/20 05:09:04;;;;;;;5.08;3.52;;;;;;;19.59;79.85;100169.41;1798303;79;21431;-66
2022/08/20 05:11:34;;;;;;;5.10;3.37;;;;;;;19.66;79.56;100171.98;1787817;79;21061;-65
2022/08/20 05:14:07;;;;;;;6.17;3.47;;;;;;;19.69;79.33;100167.28;1794933;79;20976;-65
2022/08/20 05:16:39;;;;;;;4.70;3.20;;;;;;;19.73;79.23;100170.66;1794731;79;21403;-65
2022/08/20 05:19:10;;;;;;;5.83;4.00;;;;;;;19.80;79.20;100162.95;1780974;79;21074;-64
2022/08/20 05:21:40;;;;;;;4.20;3.10;;;;;;;19.87;78.71;100169.13;1781193;79;21257;-65
2022/08/20 05:24:11;;;;;;;5.35;3.42;;;;;;;19.90;78.58;100161.64;1802153;79;21710;-64
2022/08/20 05:26:41;;;;;;;4.47;3.35;;;;;;;19.98;78.25;100158.92;1781680;79;21026;-64
2022/08/20 05:29:11;;;;;;;4.55;3.02;;;;;;;20.05;78.05;100153.14;1802191;79;21272;-65
2022/08/20 05:31:42;;;;;;;4.62;2.90;;;;;;;20.09;77.81;100154.28;1800819;79;21008;-65
2022/08/20 05:34:11;;;;;;;4.15;3.00;;;;;;;20.11;77.69;100148.73;1803198;79;20995;-64
2022/08/20 05:36:44;;;;;;;5.08;3.10;;;;;;;20.14;77.46;100144.58;1786304;79;21027;-66
2022/08/20 05:39:16;;;;;;;4.78;2.60;;;;;;;20.17;77.35;100138.52;1790648;79;21054;-65
2022/08/20 05:41:48;;;;;;;8.40;2.90;;;;;;;20.20;76.95;100139.38;1800588;79;21431;-63
2022/08/20 05:44:18;;;;;;;4.15;2.52;;;;;;;20.22;76.87;100133.83;1781309;79;21047;-64
2022/08/20 05:46:48;;;;;;;3.62;2.60;;;;;;;20.29;76.66;100140.55;1799085;79;20999;-65
2022/08/20 05:49:20;;;;;;;6.00;3.45;;;;;;;20.34;76.25;100131.39;1774860;79;21486;-64
2022/08/20 05:51:50;;;;;;;3.33;2.80;;;;;;;20.36;76.18;100132.80;1799421;79;21016;-65
2022/08/20 05:54:20;;;;;;;3.98;2.52;;;;;;;20.37;75.93;100134.48;1786108;79;21129;-66
2022/08/20 05:56:51;;;;;;;4.25;3.02;;;;;;;20.36;75.79;100138.37;1776660;79;21501;-64
2022/08/20 05:59:21;;;;;;;4.30;2.65;;;;;;;20.39;75.85;100136.98;1790889;79;21065;-64
2022/08/20 06:01:52;;;;;;;4.50;2.67;;;;;;;20.42;75.69;100133.15;1802502;79;21443;-65
2022/08/20 06:04:30;;;;;;;5.08;2.87;;;;;;;20.44;75.63;100138.45;1779505;79;21022;-64
2022/08/20 06:07:05;;;;;;;5.20;2.42;;;;;;;20.48;75.46;100141.81;1800585;79;21074;-64
2022/08/20 06:09:35;;;;;;;4.95;3.15;;;;;;;20.52;75.35;100147.12;1760373;79;21077;-65
2022/08/20 06:12:07;;;;;;;3.00;2.30;;;;;;;20.57;75.19;100146.31;1798203;79;21023;-64
2022/08/20 06:14:37;;;;;;;4.50;2.33;;;;;;;20.67;74.75;100146.92;1779979;79;21082;-64
2022/08/20 06:17:13;;;;;;;6.53;2.60;;;;;;;20.73;74.20;100154.20;1805602;79;21062;-63
2022/08/20 06:19:45;;;;;;;3.60;2.25;;;;;;;20.77;74.06;100160.34;1781632;79;21007;-64
2022/08/20 06:22:15;;;;;;;3.27;2.00;;;;;;;20.83;73.91;100152.88;1804346;79;21055;-64
2022/08/20 06:24:49;;;;;;;2.98;2.22;;;;;;;20.91;73.45;100153.75;1792263;79;21067;-67
2022/08/20 06:27:21;;;;;;;3.52;2.55;;;;;;;20.96;73.14;100157.11;1816448;79;21006;-64
2022/08/20 06:29:51;;;;;;;2.98;2.30;;;;;;;21.00;72.96;100161.88;1802351;79;22034;-65
2022/08/20 06:32:21;;;;;;;3.20;2.70;;;;;;;21.04;72.71;100162.16;1793796;79;21559;-64
2022/08/20 06:34:54;;;;;;;2.87;2.42;;;;;;;21.06;72.68;100165.52;1798568;79;21504;-65
2022/08/20 06:37:26;;;;;;;3.65;2.22;;;;;;;21.07;72.35;100161.06;1797490;79;21046;-64
2022/08/20 06:40:11;;;;;;;4.80;2.40;;;;;;;21.09;72.07;100164.41;1796208;78;21488;-65
2022/08/20 06:42:42;;;;;;;4.15;2.60;;;;;;;21.15;71.84;100176.41;1774329;79;21040;-66
2022/08/20 06:45:18;;;;;;;2.47;2.27;;;;;;;21.23;71.59;100173.69;1790551;78;21484;-63
2022/08/20 06:47:49;;;;;;;3.58;2.40;;;;;;;21.32;71.45;100167.30;1791164;79;21007;-65
2022/08/20 06:50:23;;;;;;;4.60;2.60;;;;;;;21.43;71.05;100162.59;1804685;79;21034;-64
2022/08/20 06:52:53;;;;;;;5.03;2.17;;;;;;;21.48;70.78;100156.51;1797169;79;21086;-64
2022/08/20 06:55:23;;;;;;;6.05;2.40;;;;;;;21.55;70.69;100163.21;1797707;79;21033;-64
2022/08/20 06:58:01;;;;;;;2.92;2.40;;;;;;;21.58;69.67;100159.03;1798448;79;21042;-64
2022/08/20 07:00:32;;;;;;;;;;;;;;;21.57;69.63;100163.77;1789514;79;21034;-63
2022/08/20 07:03:01;;;;;;;2.95;2.27;;;;;;;21.62;69.29;100158.77;1798489;79;20217;-63
2022/08/20 07:05:33;;;;;;;2.58;2.00;;;;;;;21.59;69.37;100157.36;1798855;79;21451;-64
2022/08/20 07:08:04;;;;;;;3.70;1.98;;;;;;;21.57;69.28;100160.98;1809938;79;21051;-63
2022/08/20 07:10:34;;;;;;;12.93;2.90;;;;;;;21.60;69.24;100160.98;1794586;79;21031;-65
2022/08/20 07:13:05;;;;;;;3.12;2.27;;;;;;;21.62;69.05;100156.81;1795691;79;21008;-63
2022/08/20 07:15:37;;;;;;;4.72;2.12;;;;;;;21.68;68.79;100159.88;1806890;79;21004;-64
2022/08/20 07:18:06;;;;;;;3.27;2.33;;;;;;;21.72;68.70;100155.42;1789729;79;21058;-64
2022/08/20 07:20:37;;;;;;;2.15;1.95;;;;;;;21.83;68.69;100166.03;1788125;79;21087;-65
2022/08/20 07:23:07;;;;;;;4.17;2.15;;;;;;;21.94;68.37;100171.06;1796020;79;21035;-65
2022/08/20 07:25:36;;;;;;;5.67;2.55;;;;;;;22.04;68.22;100162.16;1794578;79;21500;-65
2022/08/20 07:28:12;;;;;;;4.25;2.05;;;;;;;22.16;67.96;100162.47;1799726;79;21007;-63
2022/08/20 07:33:33;;;;;;;4.47;2.00;;;;;;;22.17;67.49;100169.16;1785447;79;21096;-64
2022/08/20 07:36:04;;;;;;;2.65;2.37;;;;;;;22.28;67.31;100169.44;1795168;79;21028;-64
2022/08/20 07:38:34;;;;;;;3.05;2.10;;;;;;;22.39;66.64;100162.72;1802988;79;20979;-64
2022/08/20 07:41:13;;;;;;;4.30;2.00;;;;;;;22.45;66.40;100165.78;1803146;79;21571;-64
2022/08/20 07:43:41;;;;;;;3.10;1.93;;;;;;;22.48;66.33;100164.38;1788484;79;21074;-65
2022/08/20 07:46:11;;;;;;;2.92;1.90;;;;;;;22.53;65.88;100167.16;1791235;79;21019;-67
2022/08/20 07:48:45;;;;;;;2.37;1.85;;;;;;;22.58;65.84;100166.31;1785459;79;21520;-66
2022/08/20 07:51:16;;;;;;;3.65;2.00;;;;;;;22.65;65.33;100166.86;1778252;79;21090;-65
2022/08/20 07:53:53;;;;;;;3.00;1.72;;;;;;;22.67;65.09;100156.23;1780633;79;21476;-64
2022/08/20 07:56:26;;;;;;;3.75;2.25;;;;;;;22.68;65.19;100154.55;1791755;79;21461;-64
2022/08/20 07:59:00;;;;;;;2.85;2.00;;;;;;;22.70;65.23;100155.67;1795354;79;21042;-64
2022/08/20 08:01:34;;;;;;;1.95;1.75;;;;;;;22.76;64.42;100151.20;1733470;81;21113;-65
2022/08/20 08:04:03;;;;;;;1.87;1.77;;;;;;;22.78;63.66;100156.52;1791860;79;21035;-66
2022/08/20 08:06:33;;;;;;;1.77;1.67;;;;;;;22.76;64.03;100156.80;1798323;79;20996;-62
2022/08/20 08:09:09;;;;;;;3.08;1.95;;;;;;;22.79;63.66;100155.39;1813296;79;21018;-63
2022/08/20 08:11:41;;;;;;;2.62;1.90;;;;;;;22.80;63.60;100154.83;1810312;79;21015;-63
2022/08/20 08:14:14;;;;;;;3.33;2.08;;;;;;;22.85;63.66;100152.89;1809646;79;21050;-63
2022/08/20 08:16:44;;;;;;;2.27;2.00;;;;;;;22.87;63.34;100146.45;1809749;79;20987;-63
2022/08/20 08:19:14;;;;;;;4.03;1.90;;;;;;;22.88;63.60;100147.28;1807159;79;21019;-63
2022/08/20 08:21:43;;;;;;;3.33;2.10;;;;;;;22.93;62.94;100146.70;1820502;79;20995;-64
2022/08/20 08:24:14;;;;;;;7.62;2.27;;;;;;;22.96;62.71;100144.73;1808178;79;21050;-63
2022/08/20 08:26:46;;;;;;;3.15;1.95;;;;;;;23.01;62.52;100138.29;1809386;79;21245;-63
2022/08/20 08:29:15;;;;;;;1.90;1.60;;;;;;;23.03;62.29;100138.84;1809785;79;21022;-63
2022/08/20 08:31:45;;;;;;;2.98;2.00;;;;;;;23.02;62.59;100141.36;1814279;79;21508;-63
2022/08/20 08:34:15;;;;;;;3.75;1.90;;;;;;;23.08;62.74;100144.41;1806806;79;21010;-62
2022/08/20 08:36:44;;;;;;;6.47;4.20;;;;;;;23.14;62.52;100141.02;1810135;79;21414;-63
2022/08/20 08:39:13;;;;;;;3.80;2.72;;;;;;;23.24;62.22;100139.57;1800360;79;21022;-63
2022/08/20 08:41:48;;;;;;;2.42;1.90;;;;;;;23.34;61.58;100133.92;1806752;79;21033;-63
2022/08/20 08:44:27;;;;;;;2.00;1.70;;;;;;;23.46;61.60;100135.83;1816754;79;21007;-64
2022/08/20 08:46:59;;;;;;;4.17;2.52;;;;;;;23.60;60.83;100130.46;1820304;79;21043;-64
2022/08/20 08:49:32;;;;;;;2.92;1.92;;;;;;;23.72;60.66;100128.13;1808257;79;21042;-65
2022/08/20 08:52:10;;;;;;;2.42;1.60;;;;;;;23.83;60.26;100136.72;1796326;79;21093;-65
2022/08/20 08:54:44;;;;;;;2.08;1.55;;;;;;;23.86;59.26;100136.70;1806897;79;21454;-64
2022/08/20 08:57:15;;;;;;;2.12;1.62;;;;;;;23.90;58.47;100130.22;1809035;78;21042;-63
2022/08/20 08:59:47;;;;;;;1.98;1.50;;;;;;;23.90;58.32;100122.39;1756657;81;21069;-64
2022/08/20 09:02:21;;;;;;;2.33;1.47;;;;;;;23.93;58.32;100119.00;1761002;80;21026;-64
2022/08/20 09:04:51;;;;;;;2.87;1.75;;;;;;;23.99;58.13;100125.66;1764926;80;21489;-63
2022/08/20 09:07:23;;;;;;;2.83;1.70;;;;;;;23.96;57.67;100126.81;1767528;80;21067;-62
2022/08/20 09:09:52;;;;;;;3.05;1.87;;;;;;;23.95;58.03;100119.55;1740264;81;21012;-64
2022/08/20 09:12:26;;;;;;;4.20;1.57;;;;;;;24.08;57.48;100125.06;1758581;81;21444;-63
2022/08/20 09:14:54;;;;;;;3.47;1.52;;;;;;;24.20;57.33;100126.34;1733630;81;21067;-64
2022/08/20 09:17:24;;;;;;;4.85;1.90;;;;;;;24.40;56.44;100125.33;1746033;81;21052;-64
2022/08/20 09:19:53;;;;;;;2.52;1.50;;;;;;;24.60;55.90;100127.91;1760221;81;21400;-63
2022/08/20 09:22:24;;;;;;;1.60;1.50;;;;;;;24.74;54.84;100123.86;1746242;81;21023;-63
2022/08/20 09:24:55;;;;;;;2.60;1.50;;;;;;;24.79;54.02;100121.56;1737437;81;21031;-62
2022/08/20 09:27:24;;;;;;;8.00;1.98;;;;;;;24.74;53.82;100124.42;1752403;81;21079;-62
2022/08/20 09:29:54;;;;;;;3.50;1.40;;;;;;;24.68;54.13;100130.62;1756940;81;21090;-64
2022/08/20 09:32:24;;;;;;;3.47;1.65;;;;;;;24.67;54.20;100127.55;1757198;81;21199;-63
2022/08/20 09:34:55;;;;;;;4.72;2.10;;;;;;;24.63;53.37;100129.28;1730467;81;21006;-63
2022/08/20 09:37:29;;;;;;;2.85;1.47;;;;;;;24.54;53.89;100131.06;1747855;81;21035;-63
2022/08/20 09:39:59;;;;;;;2.40;1.47;;;;;;;24.48;54.01;100133.09;1760381;81;21125;-64
2022/08/20 09:42:31;;;;;;;1.45;1.32;;;;;;;24.42;54.42;100133.44;1760231;81;21012;-63
2022/08/20 09:45:01;;;;;;;2.83;1.72;;;;;;;24.35;54.57;100133.78;1756835;81;21083;-63
2022/08/20 09:47:30;;;;;;;2.15;1.60;;;;;;;24.32;54.59;100128.21;1747120;81;21063;-62
2022/08/20 09:50:00;;;;;;;2.17;1.70;;;;;;;24.31;55.27;100125.14;1739060;81;21015;-63
2022/08/20 09:52:42;;;;;;;4.15;1.60;;;;;;;24.33;55.48;100133.25;1758523;81;21071;-62
2022/08/20 09:55:34;;;;;;;6.03;2.02;;;;;;;24.32;55.31;100132.41;1733603;81;21052;-62
2022/08/20 09:58:11;;;;;;;3.25;1.90;;;;;;;24.26;55.94;100119.56;1753081;81;21047;-62
2022/08/20 10:00:40;;;;;;;2.22;1.55;;;;;;;24.29;55.63;100121.80;1756160;81;21012;-63
2022/08/20 10:03:09;;;;;;;5.62;1.72;;;;;;;24.29;55.92;100120.41;1753396;81;21110;-62
2022/08/20 10:05:39;;;;;;;5.05;2.10;;;;;;;24.30;55.88;100123.47;1741068;81;21031;-63
2022/08/20 10:08:09;;;;;;;3.80;2.20;;;;;;;24.33;55.86;100126.25;1740092;81;21146;-65
2022/08/20 10:10:38;;;;;;;10.28;5.87;;;;;;;24.34;55.90;100124.55;1748573;81;21059;-65
2022/08/20 10:13:08;;;;;;;2.87;2.12;;;;;;;24.38;55.74;100125.36;1765445;81;21043;-63
2022/08/20 10:15:40;;;;;;;3.30;2.10;;;;;;;24.38;55.11;100123.39;1775312;80;21091;-63
2022/08/20 10:18:11;;;;;;;2.67;2.12;;;;;;;24.41;55.36;100127.56;1766574;81;21054;-63
2022/08/20 10:20:40;;;;;;;2.52;1.57;;;;;;;24.43;55.08;100130.91;1775298;81;21083;-62
2022/08/20 10:23:10;;;;;;;2.45;1.90;;;;;;;24.45;55.04;100132.28;1762220;81;21039;-62
2022/08/20 10:25:40;;;;;;;2.70;2.00;;;;;;;24.49;54.80;100129.72;1766796;81;21016;-62
2022/08/20 10:28:11;;;;;;;2.67;1.85;;;;;;;24.52;55.22;100130.53;1719014;81;21141;-63
2022/08/20 10:30:40;;;;;;;3.67;1.85;;;;;;;24.55;55.27;100132.17;1758620;81;21058;-63
2022/08/20 10:33:10;;;;;;;2.75;1.90;;;;;;;24.52;55.26;100134.16;1757058;81;21007;-64
2022/08/20 10:35:40;;;;;;;3.20;1.77;;;;;;;24.51;55.01;100134.45;1769324;81;20988;-63
2022/08/20 10:38:10;;;;;;;4.20;2.00;;;;;;;24.50;55.41;100127.19;1766133;81;21016;-65
2022/08/20 10:40:40;;;;;;;2.10;1.90;;;;;;;24.49;55.49;100126.92;1756633;81;21510;-63
2022/08/20 10:43:11;;;;;;;2.15;1.80;;;;;;;24.48;55.78;100130.85;1752639;80;21440;-64
2022/08/20 10:45:40;;;;;;;2.83;1.60;;;;;;;24.45;56.26;100134.25;1766960;81;21047;-62
2022/08/20 10:48:10;;;;;;;3.77;2.10;;;;;;;24.41;56.68;100133.17;1755565;81;21553;-63
2022/08/20 10:50:39;;;;;;;3.50;1.95;;;;;;;24.30;57.00;100126.84;1764642;81;21066;-64
2022/08/20 10:53:08;;;;;;;3.85;2.00;;;;;;;24.23;57.26;100125.75;1764549;81;21102;-64
2022/08/20 10:55:37;;;;;;;2.92;1.95;;;;;;;24.18;57.89;100129.16;1763435;81;21054;-63
2022/08/20 10:58:07;;;;;;;2.27;1.90;;;;;;;24.13;58.05;100137.61;1767287;81;20999;-63
2022/08/20 11:00:39;;;;;;;3.02;1.92;;;;;;;24.10;58.16;100129.80;1754273;81;21090;-63
2022/08/20 11:03:09;;;;;;;2.75;1.90;;;;;;;24.07;58.50;100139.63;1767168;81;21067;-64
2022/08/20 11:05:41;;;;;;;3.65;1.92;;;;;;;24.03;58.70;100132.91;1749090;81;21074;-63
2022/08/20 11:08:10;;;;;;;3.35;1.92;;;;;;;24.01;58.97;100133.77;1730379;81;21051;-63
2022/08/20 11:10:41;;;;;;;4.03;1.98;;;;;;;23.99;58.87;100135.45;1732964;81;21070;-64
2022/08/20 11:13:11;;;;;;;2.25;1.77;;;;;;;23.99;59.09;100132.66;1751851;81;21047;-62
2022/08/20 11:15:41;;;;;;;2.08;1.85;;;;;;;24.02;59.04;100127.04;1756161;81;21516;-62
2022/08/20 11:18:13;;;;;;;2.40;2.10;;;;;;;24.06;59.35;100121.69;1764057;81;21067;-63
2022/08/20 11:20:43;;;;;;;2.55;2.00;;;;;;;24.04;59.56;100126.19;1743428;81;21036;-62
2022/08/20 11:23:12;;;;;;;5.00;2.33;;;;;;;24.05;59.71;100116.66;1757385;81;21485;-63
2022/08/20 11:25:42;;;;;;;2.67;2.00;;;;;;;24.11;59.77;100117.47;1749228;81;21079;-62
2022/08/20 11:28:11;;;;;;;3.20;2.30;;;;;;;24.14;59.83;100120.52;1748914;81;21027;-63
2022/08/20 11:30:41;;;;;;;3.30;2.10;;;;;;;24.21;59.81;100113.17;1789704;79;21210;-62
2022/08/20 11:33:10;;;;;;;3.35;1.87;;;;;;;24.30;59.57;100114.23;1772741;79;21023;-63
2022/08/20 11:35:41;;;;;;;2.58;2.08;;;;;;;24.36;59.33;100108.02;1806412;79;21109;-63
2022/08/20 11:38:12;;;;;;;2.40;2.20;;;;;;;24.45;59.05;100113.23;1806302;79;21004;-64
2022/08/20 11:40:41;;;;;;;4.12;2.10;;;;;;;24.50;58.45;100108.98;1804646;79;21376;-64
2022/08/20 11:43:10;;;;;;;2.35;2.10;;;;;;;24.49;58.40;100111.52;1775353;79;21062;-63
2022/08/20 11:45:42;;;;;;;2.87;2.27;;;;;;;24.50;58.25;100108.98;1792399;79;21070;-62
2022/08/20 11:48:14;;;;;;;5.05;2.08;;;;;;;24.54;58.37;100105.28;1800718;79;21058;-61
2022/08/20 11:50:44;;;;;;;2.42;2.20;;;;;;;24.60;58.08;100104.66;1788430;79;21470;-64